createdAt,value
2018-11-10T00:01:28.408Z,94358.70
2018-11-10T00:03:56.961Z,94354.59
2018-11-10T00:06:25.556Z,94348.20
2018-11-10T00:08:54.049Z,94352.20
2018-11-10T00:11:22.473Z,94349.27
2018-11-10T00:13:50.968Z,94354.75
2018-11-10T00:16:19.638Z,94356.48
2018-11-10T00:18:48.036Z,94353.96
2018-11-10T00:21:16.468Z,94350.41
2018-11-10T00:23:45.010Z,94345.91
2018-11-10T00:26:13.455Z,94338.97
2018-11-10T00:28:41.992Z,94338.88
2018-11-10T00:31:10.424Z,94337.80
2018-11-10T00:33:38.872Z,94346.43
2018-11-10T00:36:07.398Z,94339.13
2018-11-10T00:38:35.858Z,94341.55
2018-11-10T00:41:04.392Z,94341.51
2018-11-10T00:43:32.818Z,94327.80
2018-11-10T00:46:01.357Z,94339.89
2018-11-10T00:48:29.792Z,94327.02
2018-11-10T00:50:58.319Z,94314.71
2018-11-10T00:53:26.793Z,94326.45
2018-11-10T00:55:55.289Z,94306.15
2018-11-10T00:58:23.734Z,94312.52
2018-11-10T01:00:52.262Z,94310.80
2018-11-10T01:03:20.734Z,94314.12
2018-11-10T01:05:49.193Z,94313.51
2018-11-10T01:08:17.694Z,94306.94
2018-11-10T01:10:46.359Z,94310.06
2018-11-10T01:13:14.776Z,94309.92
2018-11-10T01:15:43.244Z,94301.22
2018-11-10T01:18:11.656Z,94315.50
2018-11-10T01:20:40.090Z,94306.58
2018-11-10T01:23:08.504Z,94305.16
2018-11-10T01:25:37.008Z,94302.27
2018-11-10T01:28:05.515Z,94307.11
2018-11-10T01:30:33.992Z,94293.28
2018-11-10T01:33:02.422Z,94296.31
2018-11-10T01:35:30.875Z,94297.09
2018-11-10T01:37:59.294Z,94284.60
2018-11-10T01:40:27.779Z,94272.34
2018-11-10T01:42:56.250Z,94278.80
2018-11-10T01:45:24.781Z,94273.88
2018-11-10T01:47:53.198Z,94272.61
2018-11-10T01:50:21.637Z,94277.45
2018-11-10T01:52:50.123Z,94282.33
2018-11-10T01:55:18.555Z,94282.98
2018-11-10T01:57:46.993Z,94289.95
2018-11-10T02:00:16.774Z,94277.83
2018-11-10T02:02:45.887Z,94273.86
2018-11-10T02:05:14.504Z,94267.86
2018-11-10T02:07:42.987Z,94271.35
2018-11-10T02:10:13.770Z,94253.84
2018-11-10T02:12:42.487Z,94262.88
2018-11-10T02:15:12.862Z,94248.83
2018-11-10T02:17:41.383Z,94253.61
2018-11-10T02:20:13.062Z,94250.90
2018-11-10T02:22:41.604Z,94245.68
2018-11-10T02:25:12.118Z,94238.67
2018-11-10T02:27:40.644Z,94237.46
2018-11-10T02:30:10.337Z,94239.10
2018-11-10T02:32:38.846Z,94247.69
2018-11-10T02:35:07.912Z,94251.77
2018-11-10T02:37:36.934Z,94257.38
2018-11-10T02:40:06.335Z,94241.13
2018-11-10T02:42:34.838Z,94241.51
2018-11-10T02:45:03.323Z,94241.66
2018-11-10T02:47:31.771Z,94234.98
2018-11-10T02:50:00.257Z,94234.27
2018-11-10T02:52:28.722Z,94231.53
2018-11-10T02:54:57.148Z,94229.89
2018-11-10T02:57:25.594Z,94216.64
2018-11-10T02:59:54.076Z,94225.87
2018-11-10T03:02:22.520Z,94216.17
2018-11-10T03:04:50.968Z,94233.17
2018-11-10T03:07:19.410Z,94219.92
2018-11-10T03:09:48.019Z,94226.53
2018-11-10T03:12:16.515Z,94227.38
2018-11-10T03:14:44.965Z,94208.63
2018-11-10T03:17:13.415Z,94193.34
2018-11-10T03:19:41.892Z,94179.24
2018-11-10T03:22:10.366Z,94171.80
2018-11-10T03:24:39.532Z,94177.97
2018-11-10T03:27:09.017Z,94186.77
2018-11-10T03:29:37.527Z,94184.95
2018-11-10T03:32:06.673Z,94186.31
2018-11-10T03:34:36.153Z,94177.98
2018-11-10T03:37:04.669Z,94165.63
2018-11-10T03:39:33.224Z,94173.48
2018-11-10T03:42:01.720Z,94166.89
2018-11-10T03:44:30.159Z,94166.26
2018-11-10T03:46:58.592Z,94146.34
2018-11-10T03:49:26.995Z,94143.21
2018-11-10T03:51:55.427Z,94149.98
2018-11-10T03:54:23.894Z,94131.66
2018-11-10T03:56:52.415Z,94156.42
2018-11-10T03:59:20.844Z,94155.13
2018-11-10T04:01:49.266Z,94149.30
2018-11-10T04:04:17.656Z,94144.36
2018-11-10T04:06:46.109Z,94146.59
2018-11-10T04:09:14.583Z,94144.50
2018-11-10T04:11:43.041Z,94138.84
2018-11-10T04:14:11.583Z,94138.64
2018-11-10T04:16:40.068Z,94126.64
2018-11-10T04:19:08.460Z,94132.23
2018-11-10T04:21:36.871Z,94135.96
2018-11-10T04:24:05.520Z,94133.23
2018-11-10T04:26:33.934Z,94133.37
2018-11-10T04:29:02.428Z,94122.81
2018-11-10T04:31:30.850Z,94112.83
2018-11-10T04:33:59.330Z,94112.95
2018-11-10T04:36:27.784Z,94110.49
2018-11-10T04:38:56.235Z,94092.77
2018-11-10T04:41:24.758Z,94093.30
2018-11-10T04:43:53.220Z,94083.00
2018-11-10T04:46:21.748Z,94091.57
2018-11-10T04:48:50.183Z,94082.92
2018-11-10T04:51:18.616Z,94080.41
2018-11-10T04:53:47.055Z,94077.75
2018-11-10T04:56:15.507Z,94082.48
2018-11-10T04:58:44.025Z,94082.50
2018-11-10T05:01:12.632Z,94074.52
2018-11-10T05:03:41.025Z,94083.45
2018-11-10T05:06:09.533Z,94091.84
2018-11-10T05:08:38.084Z,94089.16
2018-11-10T05:11:06.740Z,94092.59
2018-11-10T05:13:35.188Z,94092.47
2018-11-10T05:16:03.640Z,94079.70
2018-11-10T05:18:33.051Z,94076.88
2018-11-10T05:21:01.613Z,94077.39
2018-11-10T05:23:30.084Z,94087.93
2018-11-10T05:26:00.272Z,94088.98
2018-11-10T05:28:28.771Z,94099.83
2018-11-10T05:30:57.345Z,94103.23
2018-11-10T05:33:26.130Z,94103.93
2018-11-10T05:35:54.588Z,94090.93
2018-11-10T05:38:23.060Z,94086.54
2018-11-10T05:40:51.469Z,94085.31
2018-11-10T05:43:19.937Z,94083.30
2018-11-10T05:45:48.372Z,94084.48
2018-11-10T05:48:16.824Z,94087.75
2018-11-10T05:50:45.281Z,94081.00
2018-11-10T05:53:13.765Z,94087.13
2018-11-10T05:55:42.273Z,94092.61
2018-11-10T05:58:10.792Z,94104.67
2018-11-10T06:00:39.270Z,94109.55
2018-11-10T06:03:07.808Z,94106.44
2018-11-10T06:05:36.272Z,94102.43
2018-11-10T06:08:05.090Z,94108.87
2018-11-10T06:10:33.580Z,94103.20
2018-11-10T06:13:02.047Z,94101.84
2018-11-10T06:15:32.602Z,94096.88
2018-11-10T06:18:01.069Z,94092.20
2018-11-10T06:20:29.572Z,94114.93
2018-11-10T06:22:58.045Z,94095.30
2018-11-10T06:25:26.557Z,94102.82
2018-11-10T06:27:54.989Z,94107.42
2018-11-10T06:30:23.460Z,94112.72
2018-11-10T06:32:51.966Z,94104.38
2018-11-10T06:35:20.420Z,94107.97
2018-11-10T06:37:48.942Z,94112.13
2018-11-10T06:40:17.416Z,94106.12
2018-11-10T06:42:45.880Z,94097.48
2018-11-10T06:45:14.373Z,94105.72
2018-11-10T06:47:42.955Z,94099.09
2018-11-10T06:50:11.879Z,94102.49
2018-11-10T06:52:41.394Z,94098.88
2018-11-10T06:55:10.796Z,94097.59
2018-11-10T06:57:39.341Z,94098.87
2018-11-10T07:00:09.969Z,94098.48
2018-11-10T07:02:38.415Z,94107.12
2018-11-10T07:05:07.356Z,94105.14
2018-11-10T07:07:35.852Z,94120.96
2018-11-10T07:10:04.345Z,94100.55
2018-11-10T07:12:32.793Z,94107.94
2018-11-10T07:15:01.290Z,94103.81
2018-11-10T07:17:30.554Z,94108.55
2018-11-10T07:19:59.025Z,94108.72
2018-11-10T07:22:27.561Z,94111.72
2018-11-10T07:24:57.026Z,94119.50
2018-11-10T07:27:27.566Z,94128.58
2018-11-10T07:29:56.128Z,94130.70
2018-11-10T07:32:24.658Z,94119.99
2018-11-10T07:34:53.126Z,94127.33
2018-11-10T07:37:21.809Z,94129.44
2018-11-10T07:39:50.234Z,94134.50
2018-11-10T07:42:19.927Z,94129.58
2018-11-10T07:44:48.652Z,94114.12
2018-11-10T07:47:18.559Z,94122.82
2018-11-10T07:49:48.250Z,94108.87
2018-11-10T07:52:16.786Z,94104.96
2018-11-10T07:54:45.394Z,94113.97
2018-11-10T07:57:13.893Z,94106.20
2018-11-10T07:59:42.429Z,94118.50
2018-11-10T08:02:12.020Z,94117.83
2018-11-10T08:04:40.499Z,94114.80
2018-11-10T08:07:09.035Z,94109.39
2018-11-10T08:09:37.662Z,94108.21
2018-11-10T08:12:06.281Z,94096.59
2018-11-10T08:14:35.060Z,94090.59
2018-11-10T08:17:04.111Z,94094.83
2018-11-10T08:19:32.743Z,94090.16
2018-11-10T08:22:03.077Z,94094.55
2018-11-10T08:24:31.638Z,94098.49
2018-11-10T08:27:00.126Z,94102.40
2018-11-10T08:29:28.551Z,94092.64
2018-11-10T08:31:57.008Z,94102.31
2018-11-10T08:34:25.437Z,94093.95
2018-11-10T08:36:55.973Z,94091.33
2018-11-10T08:39:25.501Z,94094.00
2018-11-10T08:41:54.067Z,94083.52
2018-11-10T08:44:24.459Z,94090.55
2018-11-10T08:46:52.995Z,94088.14
2018-11-10T08:49:21.541Z,94094.35
2018-11-10T08:51:50.057Z,94087.73
2018-11-10T08:54:18.574Z,94080.70
2018-11-10T08:56:48.062Z,94088.30
2018-11-10T08:59:16.576Z,94080.13
2018-11-10T09:01:45.306Z,94081.51
2018-11-10T09:04:13.929Z,94085.48
2018-11-10T09:06:42.616Z,94084.07
2018-11-10T09:09:12.876Z,94094.83
2018-11-10T09:11:42.602Z,94077.05
2018-11-10T09:14:11.300Z,94081.14
2018-11-10T09:16:40.871Z,94089.35
2018-11-10T09:19:13.648Z,94082.16
2018-11-10T09:21:43.260Z,94091.72
2018-11-10T09:24:12.208Z,94073.88
2018-11-10T09:26:42.568Z,94080.13
2018-11-10T09:29:11.402Z,94074.86
2018-11-10T09:31:40.596Z,94073.27
2018-11-10T09:34:10.094Z,94072.75
2018-11-10T09:36:39.374Z,94063.06
2018-11-10T09:39:09.726Z,94070.44
2018-11-10T09:41:39.524Z,94077.58
2018-11-10T09:44:10.459Z,94079.15
2018-11-10T09:46:39.824Z,94076.81
2018-11-10T09:49:08.691Z,94072.00
2018-11-10T09:51:37.534Z,94070.44
2018-11-10T09:54:07.116Z,94074.24
2018-11-10T09:56:36.619Z,94072.94
2018-11-10T09:59:05.976Z,94067.89
2018-11-10T10:01:34.712Z,94073.77
2018-11-10T10:04:02.952Z,94065.87
2018-11-10T10:06:31.529Z,94074.98
2018-11-10T10:09:00.061Z,94073.94
2018-11-10T10:11:28.498Z,94070.87
2018-11-10T10:13:57.076Z,94073.18
2018-11-10T10:16:26.038Z,94065.83
2018-11-10T10:18:54.429Z,94067.66
2018-11-10T10:21:23.181Z,94058.99
2018-11-10T10:23:51.685Z,94046.28
2018-11-10T10:26:20.214Z,94056.09
2018-11-10T10:28:48.917Z,94048.30
2018-11-10T10:31:18.497Z,94039.88
2018-11-10T10:33:47.068Z,94040.00
2018-11-10T10:36:15.732Z,94036.14
2018-11-10T10:38:44.469Z,94041.16
2018-11-10T10:41:13.021Z,94041.89
2018-11-10T10:43:41.613Z,94034.54
2018-11-10T10:46:10.110Z,94029.81
2018-11-10T10:48:38.809Z,94036.87
2018-11-10T10:51:08.604Z,94042.17
2018-11-10T10:53:37.159Z,94031.56
2018-11-10T10:56:06.057Z,94044.91
2018-11-10T10:58:34.454Z,94035.25
2018-11-10T11:01:09.268Z,94033.48
2018-11-10T11:03:43.209Z,94036.05
2018-11-10T11:06:11.934Z,94036.61
2018-11-10T11:08:40.473Z,94026.75
2018-11-10T11:11:09.047Z,94022.73
2018-11-10T11:13:37.612Z,94022.78
2018-11-10T11:16:06.322Z,94017.34
2018-11-10T11:18:34.848Z,94011.86
2018-11-10T11:21:03.348Z,94020.30
2018-11-10T11:23:31.912Z,94012.71
2018-11-10T11:26:00.594Z,94014.81
2018-11-10T11:28:29.232Z,94016.88
2018-11-10T11:30:57.907Z,94014.60
2018-11-10T11:33:26.465Z,94021.78
2018-11-10T11:35:55.022Z,94015.87
2018-11-10T11:38:23.568Z,94018.72
2018-11-10T11:40:52.295Z,94023.66
2018-11-10T11:43:20.998Z,94025.34
2018-11-10T11:45:55.576Z,94021.80
2018-11-10T11:48:26.838Z,94028.77
2018-11-10T11:50:56.313Z,94016.48
2018-11-10T11:56:00.676Z,94027.42
2018-11-10T11:58:29.267Z,94013.26
2018-11-10T12:00:57.631Z,94021.61
2018-11-10T12:03:26.110Z,94011.03
2018-11-10T12:05:54.720Z,94003.53
2018-11-10T12:08:23.165Z,94018.25
2018-11-10T12:10:51.872Z,94014.28
2018-11-10T12:13:20.263Z,94023.11
2018-11-10T12:15:48.728Z,94016.86
2018-11-10T12:18:17.159Z,94025.05
2018-11-10T12:20:45.702Z,94019.70
2018-11-10T12:23:14.105Z,94022.86
2018-11-10T12:25:42.571Z,94023.66
2018-11-10T12:28:11.128Z,94029.28
2018-11-10T12:30:39.574Z,94028.96
2018-11-10T12:33:08.010Z,94019.53
2018-11-10T12:35:36.372Z,94037.78
2018-11-10T12:38:04.876Z,94019.09
2018-11-10T12:40:33.327Z,94036.73
2018-11-10T12:43:01.852Z,94030.84
2018-11-10T12:45:30.431Z,94019.47
2018-11-10T12:47:58.950Z,94033.41
2018-11-10T12:50:27.393Z,94028.05
2018-11-10T12:52:55.975Z,94021.30
2018-11-10T12:55:24.430Z,94023.55
2018-11-10T12:57:52.952Z,94024.58
2018-11-10T13:00:21.266Z,94013.37
2018-11-10T13:02:49.646Z,94021.23
2018-11-10T13:05:18.007Z,94010.24
2018-11-10T13:07:47.319Z,94020.48
2018-11-10T13:10:15.654Z,94014.41
2018-11-10T13:12:44.524Z,94023.25
2018-11-10T13:15:13.030Z,94018.66
2018-11-10T13:17:41.647Z,94015.44
2018-11-10T13:20:12.568Z,94017.84
2018-11-10T13:22:41.035Z,94010.16
2018-11-10T13:25:11.723Z,94015.36
2018-11-10T13:27:40.178Z,94009.45
2018-11-10T13:30:09.975Z,94007.56
2018-11-10T13:32:38.474Z,94008.52
2018-11-10T13:35:07.626Z,94022.16
2018-11-10T13:37:36.410Z,94021.28
2018-11-10T13:40:04.999Z,94018.52
2018-11-10T13:42:33.734Z,94018.42
2018-11-10T13:45:02.383Z,94008.14
2018-11-10T13:47:30.948Z,93996.06
2018-11-10T13:49:59.747Z,94003.23
2018-11-10T13:52:28.564Z,94003.89
2018-11-10T13:54:56.652Z,93995.93
2018-11-10T13:57:25.119Z,94000.61
2018-11-10T13:59:53.591Z,93997.16
2018-11-10T14:02:22.038Z,94000.54
2018-11-10T14:04:50.479Z,93989.36
2018-11-10T14:07:18.959Z,93988.78
2018-11-10T14:09:47.406Z,94003.42
2018-11-10T14:12:15.881Z,93994.98
2018-11-10T14:14:44.339Z,94000.94
2018-11-10T14:17:12.867Z,94003.84
2018-11-10T14:19:41.379Z,94003.84
2018-11-10T14:22:09.916Z,94005.78
2018-11-10T14:24:38.338Z,94003.67
2018-11-10T14:27:06.727Z,94001.24
2018-11-10T14:29:35.159Z,93994.91
2018-11-10T14:32:03.688Z,93989.22
2018-11-10T14:34:32.119Z,93992.50
2018-11-10T14:37:00.592Z,93992.44
2018-11-10T14:39:29.047Z,93989.13
2018-11-10T14:41:57.547Z,93989.59
2018-11-10T14:44:26.040Z,93995.53
2018-11-10T14:46:54.528Z,93990.91
2018-11-10T14:49:22.968Z,93988.60
2018-11-10T14:51:51.412Z,93997.83
2018-11-10T14:54:19.859Z,93996.74
2018-11-10T14:56:48.307Z,93991.27
2018-11-10T14:59:16.733Z,93999.70
2018-11-10T15:01:45.160Z,94001.77
2018-11-10T15:04:13.771Z,93994.11
2018-11-10T15:06:42.243Z,93994.66
2018-11-10T15:09:11.151Z,93997.30
2018-11-10T15:11:39.817Z,93997.74
2018-11-10T15:14:08.348Z,93986.76
2018-11-10T15:16:36.995Z,94001.58
2018-11-10T15:19:05.519Z,94006.84
2018-11-10T15:21:33.948Z,94003.41
2018-11-10T15:24:02.403Z,94004.34
2018-11-10T15:26:30.853Z,94004.49
2018-11-10T15:28:59.464Z,94004.50
2018-11-10T15:31:27.925Z,94012.51
2018-11-10T15:33:56.446Z,94018.31
2018-11-10T15:36:24.882Z,94020.19
2018-11-10T15:38:53.604Z,94022.52
2018-11-10T15:41:22.169Z,94014.53
2018-11-10T15:43:50.642Z,94020.33
2018-11-10T15:46:19.177Z,94019.52
2018-11-10T15:48:47.715Z,94007.91
2018-11-10T15:51:16.224Z,94008.71
2018-11-10T15:53:44.675Z,94001.97
2018-11-10T15:56:13.110Z,93993.43
2018-11-10T15:58:41.679Z,93998.67
2018-11-10T16:01:10.227Z,93995.55
2018-11-10T16:03:38.779Z,93992.11
2018-11-10T16:06:07.242Z,93982.33
2018-11-10T16:08:35.727Z,93980.31
2018-11-10T16:11:04.230Z,93961.11
2018-11-10T16:13:32.756Z,93992.32
2018-11-10T16:16:01.176Z,94001.59
2018-11-10T16:18:30.084Z,93999.58
2018-11-10T16:20:58.617Z,94003.42
2018-11-10T16:23:27.002Z,94006.45
2018-11-10T16:25:55.897Z,94004.87
2018-11-10T16:28:24.307Z,94000.30
2018-11-10T16:30:52.816Z,93999.94
2018-11-10T16:33:21.287Z,93997.95
2018-11-10T16:35:49.727Z,94005.55
2018-11-10T16:38:18.211Z,94001.06
2018-11-10T16:40:46.643Z,94003.84
2018-11-10T16:43:15.069Z,94014.47
2018-11-10T16:45:43.503Z,93996.60
2018-11-10T16:48:11.986Z,93999.87
2018-11-10T16:50:40.419Z,94000.23
2018-11-10T16:53:08.868Z,93997.69
2018-11-10T16:55:37.392Z,94008.06
2018-11-10T16:58:06.321Z,94011.80
2018-11-10T17:00:34.805Z,94002.97
2018-11-10T17:03:03.195Z,94009.58
2018-11-10T17:05:31.573Z,94013.52
2018-11-10T17:08:00.028Z,94016.99
2018-11-10T17:10:28.687Z,94017.39
2018-11-10T17:12:57.082Z,94010.50
2018-11-10T17:15:25.484Z,94009.47
2018-11-10T17:17:53.910Z,93998.88
2018-11-10T17:20:22.775Z,94002.13
2018-11-10T17:22:51.164Z,94000.47
2018-11-10T17:25:19.587Z,94002.16
2018-11-10T17:27:48.010Z,94008.17
2018-11-10T17:30:18.180Z,94008.56
2018-11-10T17:32:46.658Z,94011.01
2018-11-10T17:35:15.278Z,94006.31
2018-11-10T17:37:43.942Z,94012.08
2018-11-10T17:40:13.211Z,94015.88
2018-11-10T17:42:41.639Z,94027.22
2018-11-10T17:45:11.984Z,94027.48
2018-11-10T17:47:40.691Z,94025.26
2018-11-10T17:50:10.132Z,94010.61
2018-11-10T17:52:39.293Z,94005.80
2018-11-10T17:55:08.644Z,94016.56
2018-11-10T17:57:37.161Z,94012.77
2018-11-10T18:00:06.106Z,94011.33
2018-11-10T18:02:34.633Z,94014.36
2018-11-10T18:05:03.130Z,94004.43
2018-11-10T18:07:31.990Z,93998.47
2018-11-10T18:10:00.412Z,94000.72
2018-11-10T18:12:28.859Z,93991.70
2018-11-10T18:14:57.277Z,94004.61
2018-11-10T18:17:25.827Z,94011.89
2018-11-10T18:19:54.263Z,94015.61
2018-11-10T18:22:22.703Z,94016.41
2018-11-10T18:24:51.167Z,94022.28
2018-11-10T18:27:19.630Z,94022.88
2018-11-10T18:29:48.267Z,94015.37
2018-11-10T18:32:16.753Z,94013.02
2018-11-10T18:34:45.227Z,94010.56
2018-11-10T18:37:13.644Z,94009.47
2018-11-10T18:39:42.123Z,94010.68
2018-11-10T18:42:10.540Z,93994.92
2018-11-10T18:44:39.007Z,93999.67
2018-11-10T18:47:07.604Z,94005.49
2018-11-10T18:49:35.999Z,93999.84
2018-11-10T18:52:04.377Z,93999.67
2018-11-10T18:54:32.667Z,94006.19
2018-11-10T18:57:01.028Z,93999.41
2018-11-10T18:59:29.350Z,94005.26
2018-11-10T19:01:57.678Z,94001.35
2018-11-10T19:04:26.027Z,93997.23
2018-11-10T19:06:54.355Z,94001.73
2018-11-10T19:09:22.815Z,94001.70
2018-11-10T19:11:51.159Z,94004.91
2018-11-10T19:14:19.528Z,93993.69
2018-11-10T19:16:48.115Z,94003.05
2018-11-10T19:19:16.452Z,94007.83
2018-11-10T19:21:44.940Z,94014.95
2018-11-10T19:24:13.339Z,93998.67
2018-11-10T19:26:41.766Z,94011.72
2018-11-10T19:29:10.258Z,94001.11
2018-11-10T19:31:38.663Z,94000.32
2018-11-10T19:34:07.008Z,94003.81
2018-11-10T19:36:35.394Z,94004.79
2018-11-10T19:39:04.981Z,94002.27
2018-11-10T19:41:33.347Z,94002.89
2018-11-10T19:44:01.687Z,94002.39
2018-11-10T19:46:30.085Z,93998.28
2018-11-10T19:48:59.427Z,93997.42
2018-11-10T19:51:27.995Z,93995.61
2018-11-10T19:53:56.239Z,93995.58
2018-11-10T19:56:24.575Z,93990.89
2018-11-10T19:58:52.904Z,93992.12
2018-11-10T20:01:21.280Z,93985.66
2018-11-10T20:03:49.638Z,93993.48
2018-11-10T20:06:17.971Z,93992.13
2018-11-10T20:08:46.291Z,94001.91
2018-11-10T20:11:14.673Z,93996.16
2018-11-10T20:13:42.983Z,94006.13
2018-11-10T20:16:11.292Z,94005.64
2018-11-10T20:18:40.219Z,94001.94
2018-11-10T20:21:08.541Z,93996.21
2018-11-10T20:23:36.871Z,93991.28
2018-11-10T20:26:05.455Z,93995.77
2018-11-10T20:28:34.330Z,93986.73
2018-11-10T20:31:02.887Z,94001.51
2018-11-10T20:33:32.125Z,93997.10
2018-11-10T20:36:00.453Z,93998.45
2018-11-10T20:38:28.812Z,93998.93
2018-11-10T20:40:57.188Z,94001.91
2018-11-10T20:43:25.531Z,93997.17
2018-11-10T20:45:53.850Z,93993.30
2018-11-10T20:48:22.313Z,93994.13
2018-11-10T20:50:50.624Z,93994.30
2018-11-10T20:53:19.251Z,93992.22
2018-11-10T20:55:47.588Z,94002.39
2018-11-10T20:58:15.935Z,94002.59
2018-11-10T21:00:44.396Z,94008.31
2018-11-10T21:03:12.720Z,93998.41
2018-11-10T21:05:41.146Z,93997.72
2018-11-10T21:08:09.412Z,93997.98
2018-11-10T21:10:37.735Z,94013.46
2018-11-10T21:13:06.105Z,94018.67
2018-11-10T21:15:34.487Z,94009.28
2018-11-10T21:18:02.883Z,94011.08
2018-11-10T21:20:31.267Z,94004.54
2018-11-10T21:22:59.850Z,94008.63
2018-11-10T21:25:28.378Z,94012.94
2018-11-10T21:27:56.863Z,94006.52
2018-11-10T21:30:25.380Z,94003.91
2018-11-10T21:32:53.827Z,94005.45
2018-11-10T21:35:22.438Z,93995.44
2018-11-10T21:37:50.738Z,93998.42
2018-11-10T21:40:20.371Z,94000.07
2018-11-10T21:42:48.995Z,93999.88
2018-11-10T21:45:17.935Z,94001.39
2018-11-10T21:47:46.666Z,93999.25
2018-11-10T21:50:17.041Z,93997.56
2018-11-10T21:52:45.849Z,94000.11
2018-11-10T21:55:16.316Z,94000.75
2018-11-10T21:57:45.464Z,94004.04
2018-11-10T22:00:15.691Z,93999.78
2018-11-10T22:02:44.935Z,93997.79
2018-11-10T22:05:13.312Z,93998.70
2018-11-10T22:07:41.811Z,94002.08
2018-11-10T22:10:12.287Z,94015.30
2018-11-10T22:12:40.824Z,94018.44
2018-11-10T22:15:12.196Z,94010.01
2018-11-10T22:17:41.163Z,94013.17
2018-11-10T22:20:10.949Z,94009.55
2018-11-10T22:22:39.679Z,94007.37
2018-11-10T22:25:09.011Z,94001.91
2018-11-10T22:27:38.254Z,94005.97
2018-11-10T22:30:07.796Z,94018.50
2018-11-10T22:32:36.267Z,94017.26
2018-11-10T22:35:05.015Z,94016.02
2018-11-10T22:37:33.560Z,94014.57
2018-11-10T22:40:02.004Z,94018.74
2018-11-10T22:42:30.449Z,94021.83
2018-11-10T22:44:58.883Z,94023.23
2018-11-10T22:47:27.400Z,94021.83
2018-11-10T22:49:55.783Z,94008.13
2018-11-10T22:52:24.211Z,94018.86
2018-11-10T22:54:52.664Z,94027.81
2018-11-10T22:57:21.092Z,94025.73
2018-11-10T22:59:49.558Z,94021.04
2018-11-10T23:02:18.087Z,94024.08
2018-11-10T23:04:46.586Z,94023.30
2018-11-10T23:07:15.115Z,94026.19
2018-11-10T23:09:43.526Z,94009.87
2018-11-10T23:12:12.008Z,94025.94
2018-11-10T23:14:40.380Z,94022.03
2018-11-10T23:17:08.798Z,94023.95
2018-11-10T23:19:37.175Z,94018.61
2018-11-10T23:22:05.748Z,94026.84
2018-11-10T23:24:34.075Z,94017.93
2018-11-10T23:27:02.451Z,94023.86
2018-11-10T23:29:30.876Z,94022.03
2018-11-10T23:31:59.312Z,94029.07
2018-11-10T23:34:27.795Z,94023.58
2018-11-10T23:36:56.222Z,94033.25
2018-11-10T23:39:24.693Z,94031.95
2018-11-10T23:41:53.096Z,94027.80
2018-11-10T23:44:21.514Z,94032.47
2018-11-10T23:46:49.952Z,94045.16
2018-11-10T23:49:18.332Z,94034.94
2018-11-10T23:51:46.826Z,94041.98
2018-11-10T23:56:42.688Z,94044.48
2018-11-10T23:59:11.124Z,94055.34
